Byron, California
Current Conditions -  °F | °C
As of 4:53 AM on Thursday 30 Oct 2014 (Local Time) from KLVK Reporting Station
Clear Clear  
Wind Chill: 55°   Ceiling: Unl
Heat Index: 55°   Visibility: 10mi
Dew Point: 45°   Wind: 0mph
Humidity: 69%   Direction: NA
Pressure: 29.93"   Gusts: NA
Location:  37.87°N, 121.64°W
Report Text: KLVK 301153Z AUTO 00000KT 10SM CLR 13/07 A2993 RMK AO2 SLP132 T01280072 10161 20128 58012
Loading
Personal Weather Stations






























Interactive Weather Map
Tropical Storm Tracking
New forecast layout! Learn more

10-Day Weather Forecast

Advertisements
Track Severe Weather on mobile